createdAt,value
2019-05-13T00:00:40.542Z,7.50
2019-05-13T00:03:14.980Z,7.50
2019-05-13T00:05:45.770Z,7.50
2019-05-13T00:08:21.877Z,7.50
2019-05-13T00:10:54.206Z,7.40
2019-05-13T00:13:29.022Z,7.40
2019-05-13T00:16:04.628Z,7.40
2019-05-13T00:18:39.765Z,7.30
2019-05-13T00:21:14.235Z,7.30
2019-05-13T00:23:44.825Z,7.30
2019-05-13T00:26:24.396Z,7.30
2019-05-13T00:29:10.029Z,7.30
2019-05-13T00:31:43.858Z,7.20
2019-05-13T00:34:18.683Z,7.20
2019-05-13T00:37:07.886Z,7.20
2019-05-13T00:39:26.850Z,7.20
2019-05-13T00:42:04.200Z,7.20
2019-05-13T00:44:44.557Z,7.10
2019-05-13T00:47:17.122Z,7.10
2019-05-13T00:49:46.950Z,7.10
2019-05-13T00:52:18.444Z,7.10
2019-05-13T00:54:53.470Z,7.00
2019-05-13T00:57:27.508Z,7.00
2019-05-13T00:59:59.787Z,7.00
2019-05-13T01:02:33.823Z,7.00
2019-05-13T01:05:15.249Z,6.90
2019-05-13T01:07:50.815Z,6.90
2019-05-13T01:10:23.807Z,6.90
2019-05-13T01:15:54.183Z,6.90
2019-05-13T01:18:26.048Z,6.80
2019-05-13T01:21:00.786Z,6.80
2019-05-13T01:23:34.204Z,6.80
2019-05-13T01:26:06.081Z,6.70
2019-05-13T01:28:43.806Z,6.70
2019-05-13T01:31:18.524Z,6.70
2019-05-13T01:33:50.619Z,6.70
2019-05-13T01:36:27.634Z,6.70
2019-05-13T01:39:08.124Z,6.60
2019-05-13T01:41:48.570Z,6.60
2019-05-13T01:44:24.220Z,6.60
2019-05-13T01:46:57.530Z,6.60
2019-05-13T01:49:33.457Z,6.60
2019-05-13T01:52:08.210Z,6.60
2019-05-13T01:54:47.236Z,6.60
2019-05-13T01:57:20.641Z,6.50
2019-05-13T01:59:58.014Z,6.50
2019-05-13T02:02:33.655Z,6.50
2019-05-13T02:05:06.237Z,6.50
2019-05-13T02:07:54.485Z,6.50
2019-05-13T02:10:16.811Z,6.50
2019-05-13T02:12:47.387Z,6.50
2019-05-13T02:15:39.180Z,6.50
2019-05-13T02:18:13.462Z,6.50
2019-05-13T02:20:39.895Z,6.50
2019-05-13T02:23:14.459Z,6.50
2019-05-13T02:25:50.150Z,6.50
2019-05-13T02:28:20.802Z,6.40
2019-05-13T02:30:55.778Z,6.40
2019-05-13T02:33:37.852Z,7.00
2019-05-13T02:36:13.456Z,6.40
2019-05-13T02:38:48.061Z,6.40
2019-05-13T02:41:23.826Z,6.40
2019-05-13T02:43:56.595Z,6.40
2019-05-13T02:46:33.738Z,6.40
2019-05-13T02:49:04.291Z,6.40
2019-05-13T02:51:37.280Z,6.40
2019-05-13T02:55:32.908Z,6.40
2019-05-13T02:57:25.505Z,6.40
2019-05-13T02:59:56.106Z,6.40
2019-05-13T03:02:27.555Z,6.40
2019-05-13T03:04:57.797Z,6.40
2019-05-13T03:07:33.204Z,6.30
2019-05-13T03:10:08.831Z,6.40
2019-05-13T03:12:42.568Z,6.40
2019-05-13T03:15:15.689Z,6.30
2019-05-13T03:17:53.518Z,6.30
2019-05-13T03:20:28.358Z,6.30
2019-05-13T03:23:02.813Z,6.30
2019-05-13T03:25:33.342Z,6.30
2019-05-13T03:28:08.399Z,6.30
2019-05-13T03:30:45.867Z,6.30
2019-05-13T03:33:19.516Z,6.30
2019-05-13T03:35:55.827Z,6.30
2019-05-13T03:38:32.887Z,6.30
2019-05-13T03:41:13.604Z,6.30
2019-05-13T03:43:47.632Z,6.30
2019-05-13T03:46:29.014Z,6.30
2019-05-13T03:49:02.147Z,6.30
2019-05-13T03:51:42.653Z,6.30
2019-05-13T03:54:12.903Z,6.40
2019-05-13T03:56:44.319Z,6.40
2019-05-13T03:59:22.476Z,6.40
2019-05-13T04:02:02.262Z,6.40
2019-05-13T04:04:36.373Z,6.50
2019-05-13T04:07:08.777Z,6.50
2019-05-13T04:09:42.509Z,6.60
2019-05-13T04:12:16.051Z,6.60
2019-05-13T04:14:47.656Z,6.60
2019-05-13T04:17:24.002Z,6.70
2019-05-13T04:19:57.639Z,6.70
2019-05-13T04:22:33.022Z,6.80
2019-05-13T04:25:07.849Z,6.80
2019-05-13T04:27:42.878Z,6.90
2019-05-13T04:30:16.406Z,6.90
2019-05-13T04:32:47.933Z,7.00
2019-05-13T04:35:18.007Z,7.00
2019-05-13T04:37:52.639Z,7.10
2019-05-13T04:40:24.208Z,7.20
2019-05-13T04:42:58.472Z,7.30
2019-05-13T04:45:39.204Z,7.30
2019-05-13T04:48:12.748Z,7.40
2019-05-13T04:50:45.727Z,7.50
2019-05-13T04:53:18.073Z,7.50
2019-05-13T04:55:52.648Z,7.60
2019-05-13T04:58:27.321Z,7.60
2019-05-13T05:01:47.244Z,7.70
2019-05-13T05:04:38.998Z,7.70
2019-05-13T05:07:37.882Z,7.70
2019-05-13T05:10:53.866Z,7.80
2019-05-13T05:17:07.926Z,7.80
2019-05-13T05:20:03.181Z,7.90
2019-05-13T05:22:51.247Z,8.00
2019-05-13T05:25:57.231Z,8.00
2019-05-13T05:29:18.073Z,8.00
2019-05-13T05:35:15.728Z,8.10
2019-05-13T05:38:25.290Z,8.10
2019-05-13T05:40:55.709Z,8.10
2019-05-13T05:43:44.839Z,8.20
2019-05-13T05:46:21.865Z,8.30
2019-05-13T05:48:57.483Z,8.40
2019-05-13T05:51:33.441Z,8.50
2019-05-13T05:54:14.453Z,8.50
2019-05-13T05:56:49.240Z,8.60
2019-05-13T05:59:35.511Z,8.60
2019-05-13T06:02:03.961Z,8.70
2019-05-13T06:04:42.894Z,8.80
2019-05-13T06:07:45.717Z,8.90
2019-05-13T06:10:46.746Z,8.90
2019-05-13T06:13:28.249Z,9.00
2019-05-13T06:16:01.712Z,9.10
2019-05-13T06:18:41.405Z,9.20
2019-05-13T06:21:13.816Z,9.30
2019-05-13T06:23:53.668Z,9.40
2019-05-13T06:26:23.930Z,9.50
2019-05-13T06:28:59.200Z,9.60
2019-05-13T06:31:33.638Z,9.80
2019-05-13T06:34:04.568Z,9.90
2019-05-13T06:36:34.540Z,10.00
2019-05-13T06:39:09.153Z,10.00
2019-05-13T06:41:41.641Z,10.20
2019-05-13T06:44:14.466Z,10.20
2019-05-13T06:46:51.501Z,10.30
2019-05-13T06:49:44.749Z,10.20
2019-05-13T06:52:42.630Z,10.20
2019-05-13T06:55:21.232Z,10.30
2019-05-13T06:57:52.896Z,10.50
2019-05-13T07:00:36.779Z,10.60
2019-05-13T07:03:08.607Z,10.80
2019-05-13T07:05:38.443Z,10.90
2019-05-13T07:08:12.129Z,11.00
2019-05-13T07:10:44.372Z,10.90
2019-05-13T07:13:33.684Z,11.10
2019-05-13T07:16:11.953Z,11.30
2019-05-13T07:18:46.470Z,11.60
2019-05-13T07:21:27.796Z,11.90
2019-05-13T07:23:59.211Z,12.20
2019-05-13T07:26:41.233Z,12.70
2019-05-13T07:42:02.697Z,13.90
2019-05-13T07:44:35.356Z,13.40
2019-05-13T07:47:11.849Z,12.80
2019-05-13T07:49:52.117Z,12.30
2019-05-13T07:58:46.202Z,11.90
2019-05-13T08:01:22.201Z,12.00
2019-05-13T08:03:55.903Z,12.20
2019-05-13T08:06:25.753Z,12.50
2019-05-13T08:08:56.207Z,12.70
2019-05-13T08:11:27.500Z,12.90
2019-05-13T08:14:01.143Z,12.80
2019-05-13T08:16:33.455Z,12.90
2019-05-13T08:19:08.735Z,13.10
2019-05-13T08:21:41.688Z,13.20
2019-05-13T08:24:31.787Z,13.20
2019-05-13T08:30:42.668Z,13.60
2019-05-13T08:50:37.230Z,16.30
2019-05-13T08:53:21.118Z,15.80
2019-05-13T08:55:55.054Z,15.50
2019-05-13T08:58:46.760Z,15.20
2019-05-13T09:02:25.487Z,15.30
2019-05-13T09:04:04.842Z,15.50
2019-05-13T09:06:41.699Z,15.50
2019-05-13T09:09:17.849Z,15.50
2019-05-13T09:12:02.385Z,15.00
2019-05-13T09:17:31.906Z,14.00
2019-05-13T09:20:07.996Z,13.60
2019-05-13T09:22:46.644Z,13.70
2019-05-13T09:25:21.525Z,13.80
2019-05-13T09:27:55.805Z,13.60
2019-05-13T09:33:05.170Z,13.50
2019-05-13T09:41:44.499Z,13.50
2019-05-13T09:44:24.858Z,13.40
2019-05-13T09:46:58.911Z,13.10
2019-05-13T09:49:41.860Z,13.10
2019-05-13T09:52:11.942Z,13.20
2019-05-13T09:54:46.719Z,13.40
2019-05-13T09:57:28.215Z,13.50
2019-05-13T10:00:06.707Z,13.50
2019-05-13T10:02:51.628Z,13.80
2019-05-13T10:05:27.546Z,14.00
2019-05-13T10:07:58.864Z,14.00
2019-05-13T10:10:42.995Z,14.00
2019-05-13T10:13:15.717Z,14.30
2019-05-13T10:15:48.849Z,14.70
2019-05-13T10:18:24.033Z,15.20
2019-05-13T10:21:23.387Z,15.60
2019-05-13T10:24:08.168Z,15.90
2019-05-13T10:26:46.369Z,16.10
2019-05-13T10:29:18.496Z,16.30
2019-05-13T10:31:54.481Z,16.20
2019-05-13T10:34:51.547Z,16.20
2019-05-13T10:37:25.450Z,16.20
2019-05-13T10:40:06.238Z,16.00
2019-05-13T10:42:43.134Z,15.80
2019-05-13T10:45:13.049Z,15.70
2019-05-13T10:47:46.281Z,15.50
2019-05-13T10:50:17.776Z,15.50
2019-05-13T10:52:52.361Z,15.70
2019-05-13T10:55:24.225Z,15.80
2019-05-13T10:57:54.431Z,15.90
2019-05-13T11:00:44.945Z,15.80
2019-05-13T11:03:23.031Z,15.60
2019-05-13T11:05:58.096Z,15.30
2019-05-13T11:08:38.519Z,14.80
2019-05-13T11:11:12.952Z,14.30
2019-05-13T11:13:55.074Z,14.00
2019-05-13T11:16:19.159Z,13.70
2019-05-13T11:18:53.059Z,13.50
2019-05-13T11:21:23.005Z,13.40
2019-05-13T11:23:56.234Z,13.40
2019-05-13T11:26:36.251Z,13.40
2019-05-13T11:29:12.017Z,13.20
2019-05-13T11:31:52.106Z,13.30
2019-05-13T11:34:22.392Z,13.30
2019-05-13T11:36:56.266Z,13.40
2019-05-13T11:39:38.404Z,13.40
2019-05-13T11:42:13.675Z,13.40
2019-05-13T11:44:48.161Z,13.40
2019-05-13T11:47:20.509Z,13.40
2019-05-13T11:49:52.485Z,13.40
2019-05-13T11:52:26.476Z,13.50
2019-05-13T11:55:27.249Z,13.50
2019-05-13T11:57:44.284Z,13.40
2019-05-13T12:00:22.547Z,13.40
2019-05-13T12:02:54.555Z,13.20
2019-05-13T12:05:25.103Z,13.20
2019-05-13T12:08:01.009Z,13.10
2019-05-13T12:10:35.392Z,13.00
2019-05-13T12:13:48.082Z,13.00
2019-05-13T12:16:22.946Z,12.90
2019-05-13T12:19:06.918Z,12.90
2019-05-13T12:21:46.676Z,12.90
2019-05-13T12:24:22.689Z,12.90
2019-05-13T12:27:03.896Z,12.80
2019-05-13T12:29:37.545Z,12.80
2019-05-13T12:32:22.345Z,13.10
2019-05-13T12:35:04.008Z,13.30
2019-05-13T12:37:42.210Z,13.50
2019-05-13T12:40:22.790Z,13.30
2019-05-13T12:42:58.146Z,13.20
2019-05-13T12:45:32.255Z,13.00
2019-05-13T12:48:14.232Z,12.90
2019-05-13T12:50:54.304Z,12.70
2019-05-13T12:53:32.123Z,12.70
2019-05-13T12:56:04.752Z,13.50
2019-05-13T12:58:39.401Z,14.20
2019-05-13T13:01:24.014Z,14.40
2019-05-13T13:09:35.166Z,14.10
2019-05-13T13:15:31.988Z,14.70
2019-05-13T13:17:42.275Z,14.60
2019-05-13T13:20:23.977Z,14.60
2019-05-13T13:23:04.431Z,14.50
2019-05-13T13:28:28.052Z,16.00
2019-05-13T13:31:08.400Z,16.60
2019-05-13T13:33:46.692Z,16.60
2019-05-13T13:36:26.321Z,16.30
2019-05-13T13:39:03.136Z,15.80
2019-05-13T13:41:33.856Z,15.30
2019-05-13T13:44:14.982Z,14.80
2019-05-13T13:46:54.995Z,14.40
2019-05-13T13:49:35.318Z,14.00
2019-05-13T13:52:16.053Z,13.90
2019-05-13T13:57:56.675Z,13.50
2019-05-13T14:00:41.086Z,13.20
2019-05-13T14:03:07.344Z,12.90
2019-05-13T14:05:42.896Z,12.50
2019-05-13T14:08:17.927Z,12.20
2019-05-13T14:10:51.588Z,12.00
2019-05-13T14:13:26.612Z,11.90
2019-05-13T14:15:57.687Z,11.90
2019-05-13T14:18:31.696Z,12.00
2019-05-13T14:21:08.516Z,12.20
2019-05-13T14:23:45.034Z,12.30
2019-05-13T14:26:22.183Z,12.30
2019-05-13T14:28:55.082Z,12.20
2019-05-13T14:31:35.853Z,12.00
2019-05-13T14:34:14.262Z,11.80
2019-05-13T14:36:51.644Z,11.70
2019-05-13T14:39:22.256Z,11.60
2019-05-13T14:42:02.153Z,11.70
2019-05-13T14:44:38.493Z,11.60
2019-05-13T14:47:12.565Z,11.60
2019-05-13T14:49:47.187Z,11.40
2019-05-13T14:52:25.734Z,11.40
2019-05-13T14:55:21.317Z,11.30
2019-05-13T14:58:01.588Z,11.20
2019-05-13T15:00:36.158Z,11.10
2019-05-13T15:03:13.854Z,11.00
2019-05-13T15:05:45.788Z,11.00
2019-05-13T15:08:25.868Z,11.00
2019-05-13T15:11:02.185Z,11.00
2019-05-13T15:13:42.561Z,11.00
2019-05-13T15:16:16.754Z,11.00
2019-05-13T15:22:04.823Z,11.10
2019-05-13T15:24:41.124Z,11.30
2019-05-13T15:27:23.172Z,11.40
2019-05-13T15:35:48.693Z,11.10
2019-05-13T15:41:34.175Z,10.80
2019-05-13T15:44:28.666Z,10.70
2019-05-13T15:47:22.306Z,10.70
2019-05-13T15:49:50.319Z,10.60
2019-05-13T15:52:32.955Z,10.60
2019-05-13T15:55:16.343Z,10.50
2019-05-13T15:57:52.030Z,10.50
2019-05-13T16:00:27.056Z,10.40
2019-05-13T16:05:58.509Z,10.40
2019-05-13T16:08:43.325Z,10.30
2019-05-13T16:11:26.637Z,10.30
2019-05-13T16:14:11.621Z,10.20
2019-05-13T16:16:48.189Z,10.20
2019-05-13T16:19:42.475Z,10.20
2019-05-13T16:22:14.006Z,10.20
2019-05-13T16:28:09.575Z,10.10
2019-05-13T16:30:44.518Z,10.10
2019-05-13T16:33:34.472Z,10.10
2019-05-13T16:36:21.951Z,10.00
2019-05-13T16:39:21.376Z,10.00
2019-05-13T16:42:11.139Z,9.90
2019-05-13T16:45:12.631Z,9.90
2019-05-13T16:48:07.475Z,9.80
2019-05-13T16:53:43.767Z,9.60
2019-05-13T16:56:35.082Z,9.50
2019-05-13T16:59:09.276Z,9.50
2019-05-13T17:01:46.297Z,9.40
2019-05-13T17:07:31.782Z,9.30
2019-05-13T17:10:06.800Z,9.20
2019-05-13T17:12:48.578Z,9.20
2019-05-13T17:15:22.106Z,9.10
2019-05-13T17:18:08.287Z,9.10
2019-05-13T17:20:37.340Z,9.00
2019-05-13T17:23:23.996Z,9.00
2019-05-13T17:26:02.584Z,8.90
2019-05-13T17:28:34.517Z,8.90
2019-05-13T17:31:07.988Z,8.80
2019-05-13T17:33:46.182Z,8.80
2019-05-13T17:36:21.848Z,8.80
2019-05-13T17:39:21.542Z,8.90
2019-05-13T17:47:57.182Z,8.80
2019-05-13T17:55:22.193Z,8.80
2019-05-13T18:00:32.134Z,8.70
2019-05-13T18:03:18.006Z,8.60
2019-05-13T18:08:47.281Z,8.50
2019-05-13T19:06:22.484Z,7.80
2019-05-13T19:09:18.186Z,7.80
2019-05-13T19:12:04.160Z,7.70
2019-05-13T19:14:46.562Z,7.70
2019-05-13T19:20:17.082Z,7.60
2019-05-13T19:25:54.477Z,7.60
2019-05-13T19:31:42.497Z,7.50
2019-05-13T19:37:16.609Z,7.40
2019-05-13T19:39:54.909Z,7.30
2019-05-13T19:42:37.913Z,7.20
2019-05-13T19:45:13.898Z,7.10
2019-05-13T19:47:55.065Z,7.10
2019-05-13T19:50:42.567Z,7.00
2019-05-13T19:53:12.283Z,7.00
2019-05-13T19:55:51.982Z,6.90
2019-05-13T19:58:32.090Z,6.90
2019-05-13T20:01:16.878Z,6.90
2019-05-13T20:03:52.198Z,6.90
2019-05-13T20:06:52.393Z,6.80
2019-05-13T20:09:42.917Z,6.80
2019-05-13T20:12:21.220Z,6.70
2019-05-13T20:15:01.216Z,6.70
2019-05-13T20:18:01.720Z,6.70
2019-05-13T20:23:44.267Z,6.60
2019-05-13T20:26:24.336Z,6.60
2019-05-13T20:32:13.787Z,6.50
2019-05-13T20:38:11.542Z,6.50
2019-05-13T20:41:36.159Z,6.40
2019-05-13T20:53:37.288Z,6.20
2019-05-13T20:59:21.340Z,6.10
2019-05-13T21:05:25.272Z,6.00
2019-05-13T21:08:10.518Z,6.00
2019-05-13T21:14:23.965Z,5.90
2019-05-13T21:17:02.562Z,5.90
2019-05-13T21:19:52.809Z,5.90
2019-05-13T21:22:31.711Z,5.90
2019-05-13T21:25:23.796Z,5.90
2019-05-13T21:31:11.287Z,6.00
2019-05-13T21:33:56.748Z,6.00
2019-05-13T21:36:48.058Z,6.00
2019-05-13T21:39:18.156Z,6.10
2019-05-13T21:42:03.140Z,6.10
2019-05-13T21:44:39.292Z,6.20
2019-05-13T21:47:18.066Z,6.20
2019-05-13T21:50:07.420Z,6.20
2019-05-13T21:52:32.248Z,6.20
2019-05-13T21:55:21.678Z,6.30
2019-05-13T22:12:46.040Z,6.40
2019-05-13T22:20:53.784Z,6.50
2019-05-13T22:23:28.163Z,6.60
2019-05-13T22:31:45.286Z,6.70
2019-05-13T22:34:39.273Z,6.70
2019-05-13T22:44:18.650Z,6.80
2019-05-13T22:46:52.607Z,6.80
2019-05-13T22:49:25.668Z,6.80
2019-05-13T22:55:06.264Z,6.80
2019-05-13T22:57:31.770Z,6.80
2019-05-13T23:00:11.841Z,6.80
2019-05-13T23:02:46.072Z,6.90
2019-05-13T23:05:21.627Z,6.90
2019-05-13T23:07:56.825Z,6.90
2019-05-13T23:10:31.812Z,6.90
2019-05-13T23:13:11.184Z,6.90
2019-05-13T23:15:44.038Z,6.90
2019-05-13T23:18:22.168Z,6.90
2019-05-13T23:20:47.448Z,6.90
2019-05-13T23:23:39.681Z,6.90
2019-05-13T23:26:24.545Z,6.90
2019-05-13T23:29:04.511Z,6.90
2019-05-13T23:31:42.655Z,6.90
2019-05-13T23:34:18.083Z,6.90
2019-05-13T23:36:52.329Z,7.00
2019-05-13T23:39:23.877Z,6.90
2019-05-13T23:41:56.357Z,7.00
2019-05-13T23:44:29.021Z,6.90
2019-05-13T23:47:01.508Z,6.90
2019-05-13T23:49:32.031Z,6.90
2019-05-13T23:52:08.287Z,6.90
2019-05-13T23:54:43.043Z,6.90
2019-05-13T23:57:22.108Z,6.90
2019-05-13T23:59:58.203Z,6.80
